sensor_id;sensor_type;location;lat;lon;timestamp;temperature;humidity
23532;DHT22;11943;52.270;20.978;2022-07-29T00:01:48;16.10;99.90
23532;DHT22;11943;52.270;20.978;2022-07-29T00:04:14;16.00;99.90
23532;DHT22;11943;52.270;20.978;2022-07-29T00:06:39;16.10;99.90
23532;DHT22;11943;52.270;20.978;2022-07-29T00:09:05;16.10;99.90
23532;DHT22;11943;52.270;20.978;2022-07-29T00:11:31;16.10;99.90
23532;DHT22;11943;52.270;20.978;2022-07-29T00:13:56;16.10;99.90
23532;DHT22;11943;52.270;20.978;2022-07-29T00:16:22;16.10;99.90
23532;DHT22;11943;52.270;20.978;2022-07-29T00:18:48;16.10;99.90
23532;DHT22;11943;52.270;20.978;2022-07-29T00:21:13;16.10;99.90
23532;DHT22;11943;52.270;20.978;2022-07-29T00:23:39;16.10;99.90
23532;DHT22;11943;52.270;20.978;2022-07-29T00:26:04;16.00;99.90
23532;DHT22;11943;52.270;20.978;2022-07-29T00:28:30;16.00;99.90
23532;DHT22;11943;52.270;20.978;2022-07-29T00:30:55;16.00;99.90
23532;DHT22;11943;52.270;20.978;2022-07-29T00:33:21;16.00;99.90
23532;DHT22;11943;52.270;20.978;2022-07-29T00:35:47;16.00;99.90
23532;DHT22;11943;52.270;20.978;2022-07-29T00:38:13;16.00;99.90
23532;DHT22;11943;52.270;20.978;2022-07-29T00:40:39;16.00;99.90
23532;DHT22;11943;52.270;20.978;2022-07-29T00:43:05;16.00;99.90
23532;DHT22;11943;52.270;20.978;2022-07-29T00:45:31;15.90;99.90
23532;DHT22;11943;52.270;20.978;2022-07-29T00:47:56;15.90;99.90
23532;DHT22;11943;52.270;20.978;2022-07-29T00:50:22;16.00;99.90
23532;DHT22;11943;52.270;20.978;2022-07-29T00:52:47;16.00;99.90
23532;DHT22;11943;52.270;20.978;2022-07-29T00:55:14;16.00;99.90
23532;DHT22;11943;52.270;20.978;2022-07-29T00:57:40;16.00;99.90
23532;DHT22;11943;52.270;20.978;2022-07-29T01:00:06;16.00;99.90
23532;DHT22;11943;52.270;20.978;2022-07-29T01:02:32;16.00;99.90
23532;DHT22;11943;52.270;20.978;2022-07-29T01:04:58;16.00;99.90
23532;DHT22;11943;52.270;20.978;2022-07-29T01:07:24;15.90;99.90
23532;DHT22;11943;52.270;20.978;2022-07-29T01:09:50;15.90;99.90
23532;DHT22;11943;52.270;20.978;2022-07-29T01:12:17;16.00;99.90
23532;DHT22;11943;52.270;20.978;2022-07-29T01:14:43;15.90;99.90
23532;DHT22;11943;52.270;20.978;2022-07-29T01:17:57;16.00;99.90
23532;DHT22;11943;52.270;20.978;2022-07-29T01:29:52;15.70;99.90
23532;DHT22;11943;52.270;20.978;2022-07-29T01:32:20;15.70;99.90
23532;DHT22;11943;52.270;20.978;2022-07-29T01:34:52;15.70;99.90
23532;DHT22;11943;52.270;20.978;2022-07-29T01:37:19;15.60;99.90
23532;DHT22;11943;52.270;20.978;2022-07-29T01:39:46;15.60;99.90
23532;DHT22;11943;52.270;20.978;2022-07-29T01:42:19;15.60;99.90
23532;DHT22;11943;52.270;20.978;2022-07-29T01:45:08;15.60;99.90
23532;DHT22;11943;52.270;20.978;2022-07-29T01:47:33;15.50;99.90
23532;DHT22;11943;52.270;20.978;2022-07-29T01:50:00;15.50;99.90
23532;DHT22;11943;52.270;20.978;2022-07-29T01:52:34;15.50;99.90
23532;DHT22;11943;52.270;20.978;2022-07-29T01:55:06;15.50;99.90
23532;DHT22;11943;52.270;20.978;2022-07-29T01:57:33;15.50;99.90
23532;DHT22;11943;52.270;20.978;2022-07-29T02:00:00;15.50;99.90
23532;DHT22;11943;52.270;20.978;2022-07-29T02:02:26;15.50;99.90
23532;DHT22;11943;52.270;20.978;2022-07-29T02:04:51;15.50;99.90
23532;DHT22;11943;52.270;20.978;2022-07-29T02:07:19;15.50;99.90
23532;DHT22;11943;52.270;20.978;2022-07-29T02:09:45;15.50;99.90
23532;DHT22;11943;52.270;20.978;2022-07-29T02:12:11;15.50;99.90
23532;DHT22;11943;52.270;20.978;2022-07-29T02:14:38;15.40;99.90
23532;DHT22;11943;52.270;20.978;2022-07-29T02:17:05;15.40;99.90
23532;DHT22;11943;52.270;20.978;2022-07-29T02:19:31;15.40;99.90
23532;DHT22;11943;52.270;20.978;2022-07-29T02:21:58;15.30;99.90
23532;DHT22;11943;52.270;20.978;2022-07-29T02:24:24;15.40;99.90
23532;DHT22;11943;52.270;20.978;2022-07-29T02:26:50;15.30;99.90
23532;DHT22;11943;52.270;20.978;2022-07-29T02:29:16;15.30;99.90
23532;DHT22;11943;52.270;20.978;2022-07-29T02:31:44;15.30;99.90
23532;DHT22;11943;52.270;20.978;2022-07-29T02:34:10;15.30;99.90
23532;DHT22;11943;52.270;20.978;2022-07-29T02:36:36;15.30;99.90
23532;DHT22;11943;52.270;20.978;2022-07-29T02:39:02;15.30;99.90
23532;DHT22;11943;52.270;20.978;2022-07-29T02:41:28;15.20;99.90
23532;DHT22;11943;52.270;20.978;2022-07-29T02:43:55;15.20;99.90
23532;DHT22;11943;52.270;20.978;2022-07-29T02:46:25;15.20;99.90
23532;DHT22;11943;52.270;20.978;2022-07-29T02:48:54;15.20;99.90
23532;DHT22;11943;52.270;20.978;2022-07-29T02:51:27;15.10;99.90
23532;DHT22;11943;52.270;20.978;2022-07-29T02:53:54;15.10;99.90
23532;DHT22;11943;52.270;20.978;2022-07-29T02:56:23;15.10;99.90
23532;DHT22;11943;52.270;20.978;2022-07-29T02:58:53;15.10;99.90
23532;DHT22;11943;52.270;20.978;2022-07-29T03:01:21;15.10;99.90
23532;DHT22;11943;52.270;20.978;2022-07-29T03:03:47;15.10;99.90
23532;DHT22;11943;52.270;20.978;2022-07-29T03:06:13;15.10;99.90
23532;DHT22;11943;52.270;20.978;2022-07-29T03:08:40;15.10;99.90
23532;DHT22;11943;52.270;20.978;2022-07-29T03:11:07;15.00;99.90
23532;DHT22;11943;52.270;20.978;2022-07-29T03:13:33;15.10;99.90
23532;DHT22;11943;52.270;20.978;2022-07-29T03:16:00;15.00;99.90
23532;DHT22;11943;52.270;20.978;2022-07-29T03:18:25;15.10;99.90
23532;DHT22;11943;52.270;20.978;2022-07-29T03:20:51;15.10;99.90
23532;DHT22;11943;52.270;20.978;2022-07-29T03:23:20;15.00;99.90
23532;DHT22;11943;52.270;20.978;2022-07-29T03:25:46;15.10;99.90
23532;DHT22;11943;52.270;20.978;2022-07-29T03:28:12;15.10;99.90
23532;DHT22;11943;52.270;20.978;2022-07-29T03:30:37;15.10;99.90
23532;DHT22;11943;52.270;20.978;2022-07-29T03:33:03;15.20;99.90
23532;DHT22;11943;52.270;20.978;2022-07-29T03:35:28;15.20;99.90
23532;DHT22;11943;52.270;20.978;2022-07-29T03:37:56;15.20;99.90
23532;DHT22;11943;52.270;20.978;2022-07-29T03:40:23;15.20;99.90
23532;DHT22;11943;52.270;20.978;2022-07-29T03:42:49;15.30;99.90
23532;DHT22;11943;52.270;20.978;2022-07-29T03:45:17;15.30;99.90
23532;DHT22;11943;52.270;20.978;2022-07-29T03:47:47;15.30;99.90
23532;DHT22;11943;52.270;20.978;2022-07-29T03:50:14;15.20;99.90
23532;DHT22;11943;52.270;20.978;2022-07-29T03:52:40;15.30;99.90
23532;DHT22;11943;52.270;20.978;2022-07-29T03:55:05;15.40;99.90
23532;DHT22;11943;52.270;20.978;2022-07-29T03:57:31;15.40;99.90
23532;DHT22;11943;52.270;20.978;2022-07-29T03:59:57;15.40;99.90
23532;DHT22;11943;52.270;20.978;2022-07-29T04:02:22;15.40;99.90
23532;DHT22;11943;52.270;20.978;2022-07-29T04:04:48;15.40;99.90
23532;DHT22;11943;52.270;20.978;2022-07-29T04:07:14;15.40;99.90
23532;DHT22;11943;52.270;20.978;2022-07-29T04:09:40;15.40;99.90
23532;DHT22;11943;52.270;20.978;2022-07-29T04:12:05;15.50;99.90
23532;DHT22;11943;52.270;20.978;2022-07-29T04:14:31;15.50;99.90
23532;DHT22;11943;52.270;20.978;2022-07-29T04:16:57;15.50;99.90
23532;DHT22;11943;52.270;20.978;2022-07-29T04:19:22;15.40;99.90
23532;DHT22;11943;52.270;20.978;2022-07-29T04:21:48;15.50;99.90
23532;DHT22;11943;52.270;20.978;2022-07-29T04:24:13;15.50;99.90
23532;DHT22;11943;52.270;20.978;2022-07-29T04:26:39;15.60;99.90
23532;DHT22;11943;52.270;20.978;2022-07-29T04:29:04;15.60;99.90
23532;DHT22;11943;52.270;20.978;2022-07-29T04:31:30;15.60;99.90
23532;DHT22;11943;52.270;20.978;2022-07-29T04:33:55;15.70;99.90
23532;DHT22;11943;52.270;20.978;2022-07-29T04:36:21;15.60;99.90
23532;DHT22;11943;52.270;20.978;2022-07-29T04:38:46;15.60;99.90
23532;DHT22;11943;52.270;20.978;2022-07-29T04:41:11;15.70;99.90
23532;DHT22;11943;52.270;20.978;2022-07-29T04:43:37;15.70;99.90
23532;DHT22;11943;52.270;20.978;2022-07-29T04:46:03;15.80;99.90
23532;DHT22;11943;52.270;20.978;2022-07-29T04:48:28;15.90;99.90
23532;DHT22;11943;52.270;20.978;2022-07-29T04:50:54;15.90;99.90
23532;DHT22;11943;52.270;20.978;2022-07-29T04:53:19;16.00;99.90
23532;DHT22;11943;52.270;20.978;2022-07-29T04:55:45;16.00;99.90
23532;DHT22;11943;52.270;20.978;2022-07-29T04:58:11;16.00;99.90
23532;DHT22;11943;52.270;20.978;2022-07-29T05:00:36;16.10;99.90
23532;DHT22;11943;52.270;20.978;2022-07-29T05:03:02;16.20;99.90
23532;DHT22;11943;52.270;20.978;2022-07-29T05:05:28;16.20;99.90
23532;DHT22;11943;52.270;20.978;2022-07-29T05:07:53;16.40;99.90
23532;DHT22;11943;52.270;20.978;2022-07-29T05:10:19;16.30;99.90
23532;DHT22;11943;52.270;20.978;2022-07-29T05:12:44;16.40;99.90
23532;DHT22;11943;52.270;20.978;2022-07-29T05:15:10;16.60;99.90
23532;DHT22;11943;52.270;20.978;2022-07-29T05:17:35;16.80;99.90
23532;DHT22;11943;52.270;20.978;2022-07-29T05:20:01;17.10;99.90
23532;DHT22;11943;52.270;20.978;2022-07-29T05:22:26;17.40;99.90
23532;DHT22;11943;52.270;20.978;2022-07-29T05:24:51;17.50;99.90
23532;DHT22;11943;52.270;20.978;2022-07-29T05:27:17;17.90;99.90
23532;DHT22;11943;52.270;20.978;2022-07-29T05:29:42;18.40;99.90
23532;DHT22;11943;52.270;20.978;2022-07-29T05:32:08;18.60;99.90
23532;DHT22;11943;52.270;20.978;2022-07-29T05:34:33;18.70;99.90
23532;DHT22;11943;52.270;20.978;2022-07-29T05:36:59;18.80;99.90
23532;DHT22;11943;52.270;20.978;2022-07-29T05:39:25;19.10;99.90
23532;DHT22;11943;52.270;20.978;2022-07-29T05:41:50;19.30;99.90
23532;DHT22;11943;52.270;20.978;2022-07-29T05:44:16;19.80;99.90
23532;DHT22;11943;52.270;20.978;2022-07-29T05:46:42;20.10;99.90
23532;DHT22;11943;52.270;20.978;2022-07-29T05:49:07;20.40;99.90
23532;DHT22;11943;52.270;20.978;2022-07-29T05:51:33;20.30;99.90
23532;DHT22;11943;52.270;20.978;2022-07-29T05:53:59;20.20;99.90
23532;DHT22;11943;52.270;20.978;2022-07-29T05:56:25;20.50;99.90
23532;DHT22;11943;52.270;20.978;2022-07-29T05:58:51;21.20;99.90
23532;DHT22;11943;52.270;20.978;2022-07-29T06:01:16;21.60;98.80
23532;DHT22;11943;52.270;20.978;2022-07-29T06:03:42;21.80;97.00
23532;DHT22;11943;52.270;20.978;2022-07-29T06:06:08;22.00;95.90
23532;DHT22;11943;52.270;20.978;2022-07-29T06:08:34;22.30;95.80
23532;DHT22;11943;52.270;20.978;2022-07-29T06:10:59;22.30;93.80
23532;DHT22;11943;52.270;20.978;2022-07-29T06:13:25;22.50;93.00
23532;DHT22;11943;52.270;20.978;2022-07-29T06:15:50;23.00;91.70
23532;DHT22;11943;52.270;20.978;2022-07-29T06:18:16;23.10;91.10
23532;DHT22;11943;52.270;20.978;2022-07-29T06:20:41;23.10;90.70
23532;DHT22;11943;52.270;20.978;2022-07-29T06:23:07;23.00;90.90
23532;DHT22;11943;52.270;20.978;2022-07-29T06:25:33;23.50;89.40
23532;DHT22;11943;52.270;20.978;2022-07-29T06:28:00;23.30;86.60
23532;DHT22;11943;52.270;20.978;2022-07-29T06:30:26;23.00;88.40
23532;DHT22;11943;52.270;20.978;2022-07-29T06:32:51;22.60;89.40
23532;DHT22;11943;52.270;20.978;2022-07-29T06:35:17;22.40;90.90
23532;DHT22;11943;52.270;20.978;2022-07-29T06:37:43;22.10;91.70
23532;DHT22;11943;52.270;20.978;2022-07-29T06:40:08;22.10;91.90
23532;DHT22;11943;52.270;20.978;2022-07-29T06:42:52;21.30;93.10
23532;DHT22;11943;52.270;20.978;2022-07-29T06:45:18;21.30;94.80
23532;DHT22;11943;52.270;20.978;2022-07-29T06:47:43;21.30;95.20
23532;DHT22;11943;52.270;20.978;2022-07-29T06:50:09;21.00;94.70
23532;DHT22;11943;52.270;20.978;2022-07-29T06:52:40;20.90;96.10
23532;DHT22;11943;52.270;20.978;2022-07-29T06:55:06;21.10;97.50
23532;DHT22;11943;52.270;20.978;2022-07-29T06:57:32;21.30;96.40
23532;DHT22;11943;52.270;20.978;2022-07-29T06:59:57;21.40;95.20
23532;DHT22;11943;52.270;20.978;2022-07-29T07:02:22;21.20;97.50
23532;DHT22;11943;52.270;20.978;2022-07-29T07:04:48;21.60;98.10
23532;DHT22;11943;52.270;20.978;2022-07-29T07:07:13;21.70;96.50
23532;DHT22;11943;52.270;20.978;2022-07-29T07:09:39;21.80;95.10
23532;DHT22;11943;52.270;20.978;2022-07-29T07:12:04;21.90;95.20
23532;DHT22;11943;52.270;20.978;2022-07-29T07:14:30;22.00;93.80
23532;DHT22;11943;52.270;20.978;2022-07-29T07:16:55;22.10;94.50
23532;DHT22;11943;52.270;20.978;2022-07-29T07:19:21;21.90;95.00
23532;DHT22;11943;52.270;20.978;2022-07-29T07:21:46;22.10;94.70
23532;DHT22;11943;52.270;20.978;2022-07-29T07:24:12;22.10;94.40
23532;DHT22;11943;52.270;20.978;2022-07-29T07:26:37;22.20;94.30
23532;DHT22;11943;52.270;20.978;2022-07-29T07:29:04;22.30;93.10
23532;DHT22;11943;52.270;20.978;2022-07-29T07:31:30;22.40;92.90
23532;DHT22;11943;52.270;20.978;2022-07-29T07:33:55;22.30;93.90
23532;DHT22;11943;52.270;20.978;2022-07-29T07:36:21;22.30;93.60
23532;DHT22;11943;52.270;20.978;2022-07-29T07:38:47;22.50;92.80
23532;DHT22;11943;52.270;20.978;2022-07-29T07:41:12;22.40;93.00
23532;DHT22;11943;52.270;20.978;2022-07-29T07:43:38;22.40;92.50
23532;DHT22;11943;52.270;20.978;2022-07-29T07:46:04;22.60;92.20
23532;DHT22;11943;52.270;20.978;2022-07-29T07:48:29;22.60;92.20
23532;DHT22;11943;52.270;20.978;2022-07-29T07:50:55;22.80;91.30
23532;DHT22;11943;52.270;20.978;2022-07-29T07:53:21;22.70;90.90
23532;DHT22;11943;52.270;20.978;2022-07-29T07:55:46;22.60;91.10
23532;DHT22;11943;52.270;20.978;2022-07-29T07:58:12;22.50;91.10
23532;DHT22;11943;52.270;20.978;2022-07-29T08:00:37;22.70;91.40
23532;DHT22;11943;52.270;20.978;2022-07-29T08:03:03;22.90;90.30
23532;DHT22;11943;52.270;20.978;2022-07-29T08:05:28;23.10;91.00
23532;DHT22;11943;52.270;20.978;2022-07-29T08:07:54;23.30;89.10
23532;DHT22;11943;52.270;20.978;2022-07-29T08:10:19;23.40;88.80
23532;DHT22;11943;52.270;20.978;2022-07-29T08:13:04;23.50;89.70
23532;DHT22;11943;52.270;20.978;2022-07-29T08:15:30;23.70;87.40
23532;DHT22;11943;52.270;20.978;2022-07-29T08:17:55;23.80;87.00
23532;DHT22;11943;52.270;20.978;2022-07-29T08:20:21;23.90;84.60
23532;DHT22;11943;52.270;20.978;2022-07-29T08:22:46;24.00;82.40
23532;DHT22;11943;52.270;20.978;2022-07-29T08:25:12;23.90;86.00
23532;DHT22;11943;52.270;20.978;2022-07-29T08:27:37;23.90;82.60
23532;DHT22;11943;52.270;20.978;2022-07-29T08:30:03;24.00;82.30
23532;DHT22;11943;52.270;20.978;2022-07-29T08:32:29;23.80;85.00
23532;DHT22;11943;52.270;20.978;2022-07-29T08:34:54;23.90;84.60
23532;DHT22;11943;52.270;20.978;2022-07-29T08:37:20;24.00;83.50
23532;DHT22;11943;52.270;20.978;2022-07-29T08:39:45;24.00;82.60
23532;DHT22;11943;52.270;20.978;2022-07-29T08:42:11;23.70;82.70
23532;DHT22;11943;52.270;20.978;2022-07-29T08:44:36;23.70;84.50
23532;DHT22;11943;52.270;20.978;2022-07-29T08:47:02;23.90;82.20
23532;DHT22;11943;52.270;20.978;2022-07-29T08:49:28;24.30;81.20
23532;DHT22;11943;52.270;20.978;2022-07-29T08:51:53;24.40;80.20
23532;DHT22;11943;52.270;20.978;2022-07-29T08:54:20;24.50;79.30
23532;DHT22;11943;52.270;20.978;2022-07-29T08:56:50;24.40;78.20
23532;DHT22;11943;52.270;20.978;2022-07-29T08:59:17;24.50;79.10
23532;DHT22;11943;52.270;20.978;2022-07-29T09:01:44;24.50;76.00
23532;DHT22;11943;52.270;20.978;2022-07-29T09:04:11;24.30;77.20
23532;DHT22;11943;52.270;20.978;2022-07-29T09:06:39;24.50;77.50
23532;DHT22;11943;52.270;20.978;2022-07-29T09:09:07;24.50;78.20
23532;DHT22;11943;52.270;20.978;2022-07-29T09:11:32;24.80;74.50
23532;DHT22;11943;52.270;20.978;2022-07-29T09:13:58;25.10;73.80
23532;DHT22;11943;52.270;20.978;2022-07-29T09:16:23;25.40;70.30
23532;DHT22;11943;52.270;20.978;2022-07-29T09:18:49;25.40;69.30
23532;DHT22;11943;52.270;20.978;2022-07-29T09:21:15;24.90;70.90
23532;DHT22;11943;52.270;20.978;2022-07-29T09:24:12;25.00;71.80
23532;DHT22;11943;52.270;20.978;2022-07-29T09:26:39;24.80;71.10
23532;DHT22;11943;52.270;20.978;2022-07-29T09:29:14;24.40;71.50
23532;DHT22;11943;52.270;20.978;2022-07-29T09:31:41;24.30;74.10
23532;DHT22;11943;52.270;20.978;2022-07-29T09:34:07;24.40;69.70
23532;DHT22;11943;52.270;20.978;2022-07-29T09:39:04;24.60;66.50
23532;DHT22;11943;52.270;20.978;2022-07-29T09:41:30;24.50;65.70
23532;DHT22;11943;52.270;20.978;2022-07-29T09:44:08;24.60;67.20
23532;DHT22;11943;52.270;20.978;2022-07-29T09:46:34;24.90;68.70
23532;DHT22;11943;52.270;20.978;2022-07-29T09:51:31;25.10;68.10
23532;DHT22;11943;52.270;20.978;2022-07-29T09:53:57;24.90;66.70
23532;DHT22;11943;52.270;20.978;2022-07-29T09:56:38;24.70;67.30
23532;DHT22;11943;52.270;20.978;2022-07-29T09:59:07;24.40;67.80
23532;DHT22;11943;52.270;20.978;2022-07-29T10:01:33;24.50;69.10
23532;DHT22;11943;52.270;20.978;2022-07-29T10:03:58;24.40;70.10
23532;DHT22;11943;52.270;20.978;2022-07-29T10:06:24;24.50;69.00
23532;DHT22;11943;52.270;20.978;2022-07-29T10:08:49;24.50;71.30
23532;DHT22;11943;52.270;20.978;2022-07-29T10:11:16;24.50;68.90
23532;DHT22;11943;52.270;20.978;2022-07-29T10:13:42;24.60;69.30
23532;DHT22;11943;52.270;20.978;2022-07-29T10:16:08;24.60;68.90
23532;DHT22;11943;52.270;20.978;2022-07-29T10:18:34;24.40;68.80
23532;DHT22;11943;52.270;20.978;2022-07-29T10:21:00;24.10;68.80
23532;DHT22;11943;52.270;20.978;2022-07-29T10:23:27;24.10;70.50
23532;DHT22;11943;52.270;20.978;2022-07-29T10:25:53;24.30;70.00
23532;DHT22;11943;52.270;20.978;2022-07-29T10:28:19;24.40;69.90
23532;DHT22;11943;52.270;20.978;2022-07-29T10:30:44;24.40;68.50
23532;DHT22;11943;52.270;20.978;2022-07-29T10:36:21;24.80;65.70
23532;DHT22;11943;52.270;20.978;2022-07-29T10:44:08;25.10;63.90
23532;DHT22;11943;52.270;20.978;2022-07-29T10:46:35;25.20;62.30
23532;DHT22;11943;52.270;20.978;2022-07-29T10:49:08;25.20;62.90
23532;DHT22;11943;52.270;20.978;2022-07-29T10:54:18;25.20;62.90
23532;DHT22;11943;52.270;20.978;2022-07-29T10:56:44;25.20;62.40
23532;DHT22;11943;52.270;20.978;2022-07-29T10:59:22;25.00;63.30
23532;DHT22;11943;52.270;20.978;2022-07-29T11:01:51;25.00;62.90
23532;DHT22;11943;52.270;20.978;2022-07-29T11:09:29;25.20;64.40
23532;DHT22;11943;52.270;20.978;2022-07-29T11:11:56;25.30;64.00
23532;DHT22;11943;52.270;20.978;2022-07-29T11:17:05;25.40;60.10
23532;DHT22;11943;52.270;20.978;2022-07-29T11:19:33;25.40;61.00
23532;DHT22;11943;52.270;20.978;2022-07-29T11:21:58;25.40;60.40
23532;DHT22;11943;52.270;20.978;2022-07-29T11:24:28;25.30;61.10
23532;DHT22;11943;52.270;20.978;2022-07-29T11:29:52;24.80;63.70
23532;DHT22;11943;52.270;20.978;2022-07-29T11:32:18;24.90;62.40
23532;DHT22;11943;52.270;20.978;2022-07-29T11:34:45;25.00;61.90
23532;DHT22;11943;52.270;20.978;2022-07-29T11:39:37;25.00;61.80
23532;DHT22;11943;52.270;20.978;2022-07-29T11:47:28;25.00;60.50
23532;DHT22;11943;52.270;20.978;2022-07-29T11:49:55;25.30;60.00
23532;DHT22;11943;52.270;20.978;2022-07-29T11:52:21;25.30;59.80
23532;DHT22;11943;52.270;20.978;2022-07-29T11:54:48;25.30;61.80
23532;DHT22;11943;52.270;20.978;2022-07-29T11:57:14;25.50;61.70
23532;DHT22;11943;52.270;20.978;2022-07-29T11:59:41;25.70;60.40
23532;DHT22;11943;52.270;20.978;2022-07-29T12:02:07;25.60;59.70
23532;DHT22;11943;52.270;20.978;2022-07-29T12:04:33;25.80;59.10
23532;DHT22;11943;52.270;20.978;2022-07-29T12:06:59;25.90;60.20
23532;DHT22;11943;52.270;20.978;2022-07-29T12:09:25;26.00;60.90
23532;DHT22;11943;52.270;20.978;2022-07-29T12:11:57;25.90;59.90
23532;DHT22;11943;52.270;20.978;2022-07-29T12:14:30;25.80;60.10
23532;DHT22;11943;52.270;20.978;2022-07-29T12:16:56;25.50;60.60
23532;DHT22;11943;52.270;20.978;2022-07-29T12:19:21;25.40;60.10
23532;DHT22;11943;52.270;20.978;2022-07-29T12:21:48;25.50;61.80
23532;DHT22;11943;52.270;20.978;2022-07-29T12:24:14;25.40;59.00
23532;DHT22;11943;52.270;20.978;2022-07-29T12:26:51;25.30;59.00
23532;DHT22;11943;52.270;20.978;2022-07-29T12:29:17;25.50;61.10
23532;DHT22;11943;52.270;20.978;2022-07-29T12:31:43;25.60;60.60
23532;DHT22;11943;52.270;20.978;2022-07-29T12:34:10;25.80;60.70
23532;DHT22;11943;52.270;20.978;2022-07-29T12:36:36;26.20;58.60
23532;DHT22;11943;52.270;20.978;2022-07-29T12:39:02;26.30;59.50
23532;DHT22;11943;52.270;20.978;2022-07-29T12:41:28;26.20;59.60
23532;DHT22;11943;52.270;20.978;2022-07-29T12:43:54;26.10;58.20
23532;DHT22;11943;52.270;20.978;2022-07-29T12:46:20;25.90;59.00
23532;DHT22;11943;52.270;20.978;2022-07-29T12:48:49;25.90;58.20
23532;DHT22;11943;52.270;20.978;2022-07-29T12:51:15;25.70;58.20
23532;DHT22;11943;52.270;20.978;2022-07-29T12:54:00;25.50;58.10
23532;DHT22;11943;52.270;20.978;2022-07-29T12:56:26;25.50;58.90
23532;DHT22;11943;52.270;20.978;2022-07-29T12:58:51;25.70;59.10
23532;DHT22;11943;52.270;20.978;2022-07-29T13:01:17;25.80;58.40
23532;DHT22;11943;52.270;20.978;2022-07-29T13:06:28;25.50;57.30
23532;DHT22;11943;52.270;20.978;2022-07-29T13:11:29;25.50;59.90
23532;DHT22;11943;52.270;20.978;2022-07-29T13:13:55;25.60;58.60
23532;DHT22;11943;52.270;20.978;2022-07-29T13:16:20;25.50;60.90
23532;DHT22;11943;52.270;20.978;2022-07-29T13:18:46;25.30;58.50
23532;DHT22;11943;52.270;20.978;2022-07-29T13:21:12;25.10;59.50
23532;DHT22;11943;52.270;20.978;2022-07-29T13:23:38;25.00;58.00
23532;DHT22;11943;52.270;20.978;2022-07-29T13:26:07;25.10;58.50
23532;DHT22;11943;52.270;20.978;2022-07-29T13:28:33;25.20;59.30
23532;DHT22;11943;52.270;20.978;2022-07-29T13:30:59;25.50;59.60
23532;DHT22;11943;52.270;20.978;2022-07-29T13:33:25;25.50;59.80
23532;DHT22;11943;52.270;20.978;2022-07-29T13:35:50;25.70;59.20
23532;DHT22;11943;52.270;20.978;2022-07-29T13:38:15;26.10;58.60
23532;DHT22;11943;52.270;20.978;2022-07-29T13:40:42;26.00;57.00
23532;DHT22;11943;52.270;20.978;2022-07-29T13:43:11;26.40;57.10
23532;DHT22;11943;52.270;20.978;2022-07-29T13:45:36;26.40;55.90
23532;DHT22;11943;52.270;20.978;2022-07-29T13:48:02;26.10;57.40
23532;DHT22;11943;52.270;20.978;2022-07-29T13:50:28;26.00;56.60
23532;DHT22;11943;52.270;20.978;2022-07-29T13:52:53;25.70;56.20
23532;DHT22;11943;52.270;20.978;2022-07-29T13:55:19;25.50;56.80
23532;DHT22;11943;52.270;20.978;2022-07-29T13:57:44;25.60;57.20
23532;DHT22;11943;52.270;20.978;2022-07-29T14:00:10;25.70;58.00
23532;DHT22;11943;52.270;20.978;2022-07-29T14:02:36;25.70;56.90
23532;DHT22;11943;52.270;20.978;2022-07-29T14:05:04;25.70;55.60
23532;DHT22;11943;52.270;20.978;2022-07-29T14:07:29;25.80;57.00
23532;DHT22;11943;52.270;20.978;2022-07-29T14:09:55;25.90;56.20
23532;DHT22;11943;52.270;20.978;2022-07-29T14:12:20;26.10;56.10
23532;DHT22;11943;52.270;20.978;2022-07-29T14:14:46;26.10;55.30
23532;DHT22;11943;52.270;20.978;2022-07-29T14:17:11;26.30;54.80
23532;DHT22;11943;52.270;20.978;2022-07-29T14:19:37;25.90;55.50
23532;DHT22;11943;52.270;20.978;2022-07-29T14:22:03;25.90;54.80
23532;DHT22;11943;52.270;20.978;2022-07-29T14:24:29;25.90;54.80
23532;DHT22;11943;52.270;20.978;2022-07-29T14:26:54;25.60;54.90
23532;DHT22;11943;52.270;20.978;2022-07-29T14:29:20;25.30;56.70
23532;DHT22;11943;52.270;20.978;2022-07-29T14:31:45;25.40;56.60
23532;DHT22;11943;52.270;20.978;2022-07-29T14:34:11;25.30;56.10
23532;DHT22;11943;52.270;20.978;2022-07-29T14:36:36;25.20;56.50
23532;DHT22;11943;52.270;20.978;2022-07-29T14:39:02;25.30;56.20
23532;DHT22;11943;52.270;20.978;2022-07-29T14:41:27;25.30;56.10
23532;DHT22;11943;52.270;20.978;2022-07-29T14:43:53;25.40;56.00
23532;DHT22;11943;52.270;20.978;2022-07-29T14:46:19;25.30;55.70
23532;DHT22;11943;52.270;20.978;2022-07-29T14:48:44;25.50;55.90
23532;DHT22;11943;52.270;20.978;2022-07-29T14:51:10;25.60;56.20
23532;DHT22;11943;52.270;20.978;2022-07-29T14:53:35;25.90;55.00
23532;DHT22;11943;52.270;20.978;2022-07-29T14:56:01;25.90;55.50
23532;DHT22;11943;52.270;20.978;2022-07-29T14:58:27;26.00;55.40
23532;DHT22;11943;52.270;20.978;2022-07-29T15:00:52;26.00;53.70
23532;DHT22;11943;52.270;20.978;2022-07-29T15:03:20;25.90;53.80
23532;DHT22;11943;52.270;20.978;2022-07-29T15:05:45;25.90;54.30
23532;DHT22;11943;52.270;20.978;2022-07-29T15:08:11;25.80;53.60
23532;DHT22;11943;52.270;20.978;2022-07-29T15:10:36;25.70;54.60
23532;DHT22;11943;52.270;20.978;2022-07-29T15:13:02;25.50;55.40
23532;DHT22;11943;52.270;20.978;2022-07-29T15:15:27;25.50;54.60
23532;DHT22;11943;52.270;20.978;2022-07-29T15:17:53;25.40;54.60
23532;DHT22;11943;52.270;20.978;2022-07-29T15:20:18;25.50;54.70
23532;DHT22;11943;52.270;20.978;2022-07-29T15:22:44;25.40;54.90
23532;DHT22;11943;52.270;20.978;2022-07-29T15:25:09;25.30;55.40
23532;DHT22;11943;52.270;20.978;2022-07-29T15:27:35;25.30;55.60
23532;DHT22;11943;52.270;20.978;2022-07-29T15:30:00;25.20;55.20
23532;DHT22;11943;52.270;20.978;2022-07-29T15:32:26;25.30;54.90
23532;DHT22;11943;52.270;20.978;2022-07-29T15:34:51;25.20;55.10
23532;DHT22;11943;52.270;20.978;2022-07-29T15:37:16;25.20;55.40
23532;DHT22;11943;52.270;20.978;2022-07-29T15:39:42;25.00;55.10
23532;DHT22;11943;52.270;20.978;2022-07-29T15:42:07;25.00;56.00
23532;DHT22;11943;52.270;20.978;2022-07-29T15:44:33;24.90;55.60
23532;DHT22;11943;52.270;20.978;2022-07-29T15:46:59;24.80;55.90
23532;DHT22;11943;52.270;20.978;2022-07-29T15:49:38;24.80;56.40
23532;DHT22;11943;52.270;20.978;2022-07-29T15:52:05;24.70;57.10
23532;DHT22;11943;52.270;20.978;2022-07-29T15:54:34;24.70;56.40
23532;DHT22;11943;52.270;20.978;2022-07-29T15:57:00;24.60;57.00
23532;DHT22;11943;52.270;20.978;2022-07-29T15:59:26;24.50;57.20
23532;DHT22;11943;52.270;20.978;2022-07-29T16:01:51;24.40;56.80